Portada
METAR-TAF:

METAR-TAF

Aeroports :

Dakar, Senegal

latitud: 14-44N, longitud: 017-30W, altitud: 27 m

Observació

L'informe es va fer fa 40 minuts, a les 14:00 UTC
Vent 12 kt del Est/Nord-Est
Temperatura 32°C
Humitat 23%
Pressió 1009 hPa
Visibilitat: 3000 m
Pols estès

METAR: GOOY 261400Z 06012KT 3000 DU NSC 32/08 Q1009

Hora: 14:40 (14:40 UTC)

Pronòstic

L'informe es va fer fa 3 hores i 10 minuts, a les 11:30 UTC
Pronòstic vàlid del 26 a les 12 UTC al 27 a les 18 UTC
Vent 14 kt del Nord/Nord-Est
Visibilitat: 3000 m
Pols estès
Evolucionant progressivament
l' 26 a les 16 UTC al 26 a les 18 UTC
Visibilitat: 4000 m

TAF: GOOY 261130Z 2612/2718 02014KT 3000 DU NSC BECMG 2616/2618 4000

Observacions i pronòstics meteorològics de més de 4000 aeroports (METAR i TAF).

Les estacions disponibles són els punts grocs i vermells al mapa.

Posi el ratolí al punt desitjat per veure el nom de l'estació.

Feu clic per veure les observacions i els pronòstics meteorològics.

Per canviar el mapa: feu clic els botons verds amb una creu de color negre per apropar; al botó verd amb un guió per allunyar la imatge; o en les fletxes verdes per a mapes adjacents.


METAR-TAF: